Time;durP1;ratioP1;P1;durP2;ratioP2;P2;SDS_P1;SDS_P2;PMS_P1;PMS_P2;Temp;Humidity;BMP_temperature;BMP_pressure;BME280_temperature;BME280_humidity;BME280_pressure;Samples;Min_cycle;Max_cycle;Signal;HPM_P1;HPM_P2
2022/08/29 00:02:07;;;;;;;10.23;4.27;;;15.80;99.90;;;;;;5026590;28;20425;-85
2022/08/29 00:04:32;;;;;;;8.50;5.20;;;18.00;99.90;;;;;;5033516;28;20425;-85
2022/08/29 00:06:58;;;;;;;14.37;5.80;;;15.80;99.90;;;;;;5008140;28;20204;-85
2022/08/29 00:09:23;;;;;;;6.30;4.33;;;15.70;99.90;;;;;;5037984;28;20765;-85
2022/08/29 00:11:49;;;;;;;7.03;4.40;;;15.60;99.90;;;;;;5031458;28;20189;-86
2022/08/29 00:14:14;;;;;;;6.20;4.90;;;15.60;99.90;;;;;;5024844;28;20178;-83
2022/08/29 00:16:40;;;;;;;7.70;4.57;;;15.60;99.90;;;;;;5003473;28;20236;-85
2022/08/29 00:19:06;;;;;;;11.13;5.30;;;15.60;99.90;;;;;;5033232;28;20236;-85
2022/08/29 00:21:31;;;;;;;12.70;4.20;;;15.60;99.90;;;;;;5036752;28;20649;-83
2022/08/29 00:23:57;;;;;;;7.13;4.57;;;15.60;99.90;;;;;;5039302;28;20190;-84
2022/08/29 00:26:23;;;;;;;6.73;3.90;;;;;;;;;;5052247;28;20228;-86
2022/08/29 00:28:49;;;;;;;10.53;5.33;;;;;;;;;;5011588;28;20562;-82
2022/08/29 00:31:15;;;;;;;5.77;3.33;;;15.50;99.90;;;;;;5022209;28;20550;-84
2022/08/29 00:33:40;;;;;;;6.60;4.37;;;15.50;99.90;;;;;;5037009;28;20435;-84
2022/08/29 00:36:08;;;;;;;8.90;4.37;;;16.70;99.90;;;;;;5032205;28;20640;-83
2022/08/29 00:38:34;;;;;;;7.37;4.13;;;15.30;99.90;;;;;;5027585;28;20227;-87
2022/08/29 00:40:59;;;;;;;7.20;4.20;;;15.50;99.90;;;;;;5017031;28;21008;-86
2022/08/29 00:43:30;;;;;;;6.30;3.87;;;15.50;99.90;;;;;;5011913;28;20199;-84
2022/08/29 00:46:20;;;;;;;8.33;4.37;;;15.50;99.90;;;;;;5006695;28;20290;-83
2022/08/29 00:48:52;;;;;;;6.83;3.63;;;15.50;99.90;;;;;;5014445;28;20904;-87
2022/08/29 00:51:19;;;;;;;7.30;4.27;;;15.50;99.90;;;;;;5047668;28;20435;-85
2022/08/29 00:53:51;;;;;;;5.53;3.73;;;15.60;99.90;;;;;;5029869;28;20436;-85
2022/08/29 00:56:17;;;;;;;8.73;4.63;;;15.60;99.90;;;;;;5017879;28;20437;-87
2022/08/29 00:58:48;;;;;;;7.23;4.53;;;15.50;99.90;;;;;;5032435;28;20467;-88
2022/08/29 01:01:15;;;;;;;6.10;3.83;;;15.60;99.90;;;;;;5023395;28;20794;-87
2022/08/29 01:03:41;;;;;;;10.37;3.63;;;15.60;99.90;;;;;;5005072;28;20441;-86
2022/08/29 01:06:08;;;;;;;5.37;3.80;;;15.60;99.90;;;;;;5033062;28;20449;-87
2022/08/29 01:08:34;;;;;;;7.23;3.83;;;15.70;99.90;;;;;;5040517;28;20453;-86
2022/08/29 01:13:47;;;;;;;5.73;4.10;;;15.70;99.90;;;;;;5032088;28;20411;-86
2022/08/29 01:16:14;;;;;;;9.93;4.70;;;15.70;99.90;;;;;;5026481;28;20973;-83
2022/08/29 01:18:44;;;;;;;8.90;3.30;;;15.60;99.90;;;;;;5018670;28;20519;-83
2022/08/29 01:21:20;;;;;;;5.50;3.80;;;15.60;99.90;;;;;;5049912;28;20530;-87
2022/08/29 01:24:22;;;;;;;9.03;4.60;;;15.60;99.90;;;;;;5028856;28;20923;-84
2022/08/29 01:26:47;;;;;;;7.17;3.40;;;15.50;99.90;;;;;;4988339;28;20911;-85
2022/08/29 01:29:14;;;;;;;8.50;3.67;;;15.40;99.90;;;;;;5030581;28;20445;-83
2022/08/29 01:31:50;;;;;;;10.83;4.13;;;15.50;99.90;;;;;;5017557;28;20212;-87
2022/08/29 01:34:17;;;;;;;11.57;3.83;;;15.50;99.90;;;;;;5020790;28;20424;-86
2022/08/29 01:36:50;;;;;;;5.63;3.77;;;15.50;99.90;;;;;;5047941;28;20427;-83
2022/08/29 01:39:17;;;;;;;11.50;3.57;;;15.50;99.90;;;;;;5039124;28;20439;-88
2022/08/29 01:41:43;;;;;;;7.40;4.37;;;15.40;99.90;;;;;;5037105;28;20428;-83
2022/08/29 01:44:12;;;;;;;11.73;3.87;;;15.40;99.90;;;;;;5012194;28;20436;-85
2022/08/29 01:46:38;;;;;;;4.73;3.60;;;15.20;99.90;;;;;;5026815;28;20277;-84
2022/08/29 01:49:08;;;;;;;6.00;3.30;;;15.20;99.90;;;;;;5009026;28;20429;-84
2022/08/29 01:51:35;;;;;;;7.77;4.20;;;15.10;99.90;;;;;;5009157;28;20425;-83
2022/08/29 01:54:01;;;;;;;8.00;3.73;;;15.00;99.90;;;;;;5044944;28;20430;-82
2022/08/29 01:56:32;;;;;;;9.67;4.90;;;15.00;99.90;;;;;;5041946;28;20455;-81
2022/08/29 01:59:00;;;;;;;9.20;3.40;;;15.00;99.90;;;;;;5056477;28;20299;-81
2022/08/29 02:01:29;;;;;;;6.23;3.80;;;15.00;99.90;;;;;;5038479;28;20464;-83
2022/08/29 02:03:57;;;;;;;10.70;4.27;;;14.90;99.90;;;;;;5032507;28;20433;-85
2022/08/29 02:06:23;;;;;;;7.77;4.27;;;14.90;99.90;;;;;;5023926;28;20450;-81
2022/08/29 02:08:48;;;;;;;6.60;3.83;;;15.00;99.90;;;;;;5048517;28;20452;-87
2022/08/29 02:11:15;;;;;;;10.83;4.57;;;14.80;99.90;;;;;;5032871;28;20442;-83
2022/08/29 02:13:44;;;;;;;13.20;4.90;;;14.80;99.90;;;;;;5041459;28;20185;-85
2022/08/29 02:16:11;;;;;;;8.50;5.23;;;14.80;99.90;;;;;;5034317;28;20460;-84
2022/08/29 02:18:37;;;;;;;9.83;4.20;;;14.80;99.90;;;;;;5028703;28;20985;-84
2022/08/29 02:21:03;;;;;;;7.50;3.50;;;14.80;99.90;;;;;;5016449;28;20397;-83
2022/08/29 02:23:29;;;;;;;6.97;4.07;;;14.70;99.90;;;;;;5032620;28;20204;-88
2022/08/29 02:25:55;;;;;;;5.53;3.43;;;14.70;99.90;;;;;;5043431;28;20508;-88
2022/08/29 02:28:21;;;;;;;7.80;5.43;;;14.70;99.90;;;;;;5023337;28;20524;-86
2022/08/29 02:30:49;;;;;;;10.17;4.67;;;14.60;99.90;;;;;;5036893;28;20522;-85
2022/08/29 02:33:16;;;;;;;9.30;4.00;;;14.60;99.90;;;;;;5011056;28;20185;-86
2022/08/29 02:35:42;;;;;;;5.30;3.17;;;14.50;99.90;;;;;;5011126;28;20443;-87
2022/08/29 02:38:09;;;;;;;7.70;4.03;;;14.50;99.90;;;;;;5021474;28;20483;-87
2022/08/29 02:40:35;;;;;;;5.93;3.00;;;14.50;99.90;;;;;;5031896;28;20464;-85
2022/08/29 02:43:02;;;;;;;7.47;3.67;;;14.40;99.90;;;;;;5026077;28;20417;-87
2022/08/29 02:45:28;;;;;;;12.03;3.43;;;14.40;99.90;;;;;;5021679;28;20467;-85
2022/08/29 02:47:54;;;;;;;10.73;3.60;;;14.30;99.90;;;;;;5027286;28;20428;-87
2022/08/29 02:50:20;;;;;;;6.20;3.50;;;14.30;99.90;;;;;;5024450;28;20434;-89
2022/08/29 02:52:46;;;;;;;6.13;4.20;;;14.20;99.90;;;;;;5020501;28;20170;-87
2022/08/29 02:55:14;;;;;;;9.23;4.20;;;14.10;99.90;;;;;;5024217;28;20423;-88
2022/08/29 02:57:41;;;;;;;16.83;4.33;;;14.10;99.90;;;;;;5021381;28;20197;-86
2022/08/29 03:00:11;;;;;;;13.40;4.13;;;14.30;99.90;;;;;;5016931;28;20448;-88
2022/08/29 03:02:37;;;;;;;9.90;5.13;;;;;;;;;;5011817;28;20503;-87
2022/08/29 03:05:03;;;;;;;9.70;4.03;;;14.00;99.90;;;;;;5024557;28;20436;-88
2022/08/29 03:07:29;;;;;;;11.00;5.05;;;14.00;99.90;;;;;;5034217;28;20820;-86
2022/08/29 03:09:55;;;;;;;10.43;4.13;;;;;;;;;;5032933;28;20196;-86
2022/08/29 03:12:20;;;;;;;11.20;4.03;;;;;;;;;;5036072;28;20171;-85
2022/08/29 03:14:46;;;;;;;10.13;4.33;;;;;;;;;;5043018;28;20417;-88
2022/08/29 03:17:12;;;;;;;5.10;3.40;;;13.80;99.90;;;;;;5013347;28;20523;-85
2022/08/29 03:19:38;;;;;;;10.07;3.93;;;;;;;;;;5036167;28;20484;-85
2022/08/29 03:22:04;;;;;;;7.60;4.20;;;13.80;99.90;;;;;;5024792;28;20190;-87
2022/08/29 03:24:29;;;;;;;7.60;4.37;;;13.80;99.90;;;;;;5020427;28;20463;-85
2022/08/29 03:26:55;;;;;;;6.30;4.20;;;13.80;99.90;;;;;;5043389;28;20183;-86
2022/08/29 03:29:20;;;;;;;8.23;5.00;;;13.80;99.90;;;;;;5041393;28;20211;-87
2022/08/29 03:31:46;;;;;;;5.90;3.67;;;13.70;99.90;;;;;;5049959;28;20185;-85
2022/08/29 03:34:13;;;;;;;13.27;4.47;;;;;;;;;;5042818;28;20177;-87
2022/08/29 03:36:39;;;;;;;6.90;3.60;;;13.70;99.90;;;;;;5022472;28;20220;-87
2022/08/29 03:39:05;;;;;;;8.13;4.10;;;;;;;;;;5019300;28;20460;-86
2022/08/29 03:41:31;;;;;;;8.63;4.20;;;13.70;99.90;;;;;;5022092;28;20444;-87
2022/08/29 03:43:58;;;;;;;3.80;2.90;;;13.70;99.90;;;;;;5007022;28;20425;-87
2022/08/29 03:46:25;;;;;;;12.73;3.80;;;13.70;99.90;;;;;;5026572;28;20451;-87
2022/08/29 03:48:50;;;;;;;6.77;3.73;;;13.70;99.90;;;;;;5021514;28;20852;-88
2022/08/29 03:51:17;;;;;;;7.37;4.27;;;13.80;99.90;;;;;;5039905;28;20427;-86
2022/08/29 03:53:42;;;;;;;6.97;4.20;;;13.70;99.90;;;;;;5037478;28;20700;-88
2022/08/29 03:56:08;;;;;;;10.90;3.97;;;13.80;99.90;;;;;;5024862;28;20441;-89
2022/08/29 03:58:34;;;;;;;4.77;3.67;;;13.80;99.90;;;;;;5020860;28;20577;-88
2022/08/29 04:01:00;;;;;;;5.80;3.47;;;13.70;99.90;;;;;;5017052;28;20456;-87
2022/08/29 04:03:26;;;;;;;12.27;4.70;;;13.70;99.90;;;;;;5010752;28;20245;-86
2022/08/29 04:05:52;;;;;;;6.53;3.70;;;13.70;99.90;;;;;;5041144;28;20452;-88
2022/08/29 04:08:18;;;;;;;7.82;4.50;;;13.60;99.90;;;;;;5026171;28;20452;-88
2022/08/29 04:10:44;;;;;;;4.43;3.53;;;13.70;99.90;;;;;;5038225;28;20218;-87
2022/08/29 04:13:11;;;;;;;5.60;3.77;;;13.60;99.90;;;;;;5019916;28;20273;-88
2022/08/29 04:15:39;;;;;;;12.10;3.67;;;13.60;99.90;;;;;;5029041;28;20425;-88
2022/08/29 04:18:07;;;;;;;8.95;3.72;;;13.60;99.90;;;;;;5033654;28;20207;-89
2022/08/29 04:20:40;;;;;;;10.70;4.80;;;13.50;99.90;;;;;;5026746;28;20197;-87
2022/08/29 04:23:07;;;;;;;6.40;4.00;;;13.70;99.90;;;;;;5034949;28;20601;-90
2022/08/29 04:25:35;;;;;;;8.73;3.33;;;13.70;99.90;;;;;;5017847;28;20405;-88
2022/08/29 04:28:04;;;;;;;9.67;4.50;;;13.70;99.90;;;;;;5029979;28;20445;-88
2022/08/29 04:30:29;;;;;;;24.63;4.40;;;13.80;99.90;;;;;;5030128;28;20450;-85
2022/08/29 04:32:55;;;;;;;5.80;3.23;;;13.70;99.90;;;;;;5023026;28;20216;-87
2022/08/29 04:35:21;;;;;;;10.57;4.10;;;13.60;99.90;;;;;;5047298;28;20199;-89
2022/08/29 04:37:48;;;;;;;4.77;3.20;;;13.60;99.90;;;;;;5037677;28;20515;-87
2022/08/29 04:40:17;;;;;;;7.60;3.90;;;13.60;99.90;;;;;;5056201;28;20176;-86
2022/08/29 04:42:43;;;;;;;7.00;5.20;;;13.60;99.90;;;;;;5037216;28;20450;-88
2022/08/29 04:45:11;;;;;;;7.30;3.13;;;13.50;99.90;;;;;;5037722;28;20461;-87
2022/08/29 04:47:38;;;;;;;6.03;3.35;;;13.60;99.90;;;;;;5007162;28;20220;-88
2022/08/29 04:50:05;;;;;;;5.68;3.40;;;13.50;99.90;;;;;;5041595;28;20196;-89
2022/08/29 04:52:31;;;;;;;7.38;4.05;;;13.50;99.90;;;;;;5015965;28;20184;-89
2022/08/29 04:54:56;;;;;;;14.57;4.28;;;13.60;99.90;;;;;;5013332;28;20224;-88
2022/08/29 04:57:23;;;;;;;6.60;3.67;;;13.70;99.90;;;;;;5041009;28;20263;-89
2022/08/29 04:59:54;;;;;;;13.10;3.67;;;13.90;99.90;;;;;;5053549;28;20201;-88
2022/08/29 05:02:20;;;;;;;10.93;3.60;;;14.40;99.90;;;;;;5026338;28;20440;-88
2022/08/29 05:04:46;;;;;;;6.90;3.17;;;14.80;99.90;;;;;;5038822;28;20416;-89
2022/08/29 05:07:12;;;;;;;7.63;3.50;;;15.30;99.90;;;;;;5038773;28;20286;-87
2022/08/29 05:09:38;;;;;;;7.53;3.57;;;16.00;99.90;;;;;;5024164;28;20554;-87
2022/08/29 05:12:04;;;;;;;8.90;3.03;;;17.10;99.90;;;;;;5021498;28;20436;-84
2022/08/29 05:14:29;;;;;;;9.13;3.10;;;18.00;99.90;;;;;;5031093;28;20184;-86
2022/08/29 05:16:55;;;;;;;10.30;3.17;;;18.80;99.90;;;;;;5016059;28;20445;-87
2022/08/29 05:19:22;;;;;;;6.43;2.80;;;19.40;99.90;;;;;;5010512;28;20217;-88
2022/08/29 05:21:47;;;;;;;9.07;2.90;;;21.00;99.90;;;;;;5043831;28;20702;-88
2022/08/29 05:24:14;;;;;;;7.20;2.70;;;21.10;99.90;;;;;;5045389;28;20435;-87
2022/08/29 05:26:42;;;;;;;8.27;3.27;;;22.20;99.90;;;;;;5005288;28;20252;-87
2022/08/29 05:29:10;;;;;;;6.90;2.80;;;23.20;99.90;;;;;;5028219;28;20506;-88
2022/08/29 05:31:37;;;;;;;5.03;2.90;;;23.50;99.90;;;;;;4999222;28;20433;-88
2022/08/29 05:34:04;;;;;;;9.17;3.03;;;24.10;99.90;;;;;;5013321;28;20463;-88
2022/08/29 05:36:30;;;;;;;5.57;3.50;;;24.80;99.90;;;;;;5049789;28;20719;-89
2022/08/29 05:38:56;;;;;;;5.70;2.40;;;26.10;99.90;;;;;;5014227;28;20457;-89
2022/08/29 05:41:22;;;;;;;9.40;3.30;;;;;;;;;;5035099;28;20429;-89
2022/08/29 05:43:48;;;;;;;6.50;3.00;;;27.80;99.90;;;;;;5019421;28;20712;-90
2022/08/29 05:46:13;;;;;;;5.03;3.10;;;29.00;98.60;;;;;;5044761;28;20442;-88
2022/08/29 05:48:41;;;;;;;5.17;2.53;;;29.70;94.60;;;;;;5032567;28;20697;-87
2022/08/29 05:51:12;;;;;;;8.27;3.70;;;30.40;92.40;;;;;;5014049;28;20170;-89
2022/08/29 05:53:38;;;;;;;9.00;3.10;;;31.20;87.90;;;;;;5041248;28;20974;-88
2022/08/29 05:56:06;;;;;;;8.23;2.60;;;31.80;77.80;;;;;;5041397;28;20459;-90
2022/08/29 05:58:32;;;;;;;5.90;2.60;;;32.30;72.60;;;;;;5037760;28;20205;-89
2022/08/29 06:00:57;;;;;;;6.60;2.47;;;33.00;70.30;;;;;;5021105;28;20420;-89
2022/08/29 06:03:23;;;;;;;8.27;2.87;;;33.90;67.00;;;;;;5018899;28;20185;-88
2022/08/29 06:05:50;;;;;;;7.03;2.67;;;33.50;58.30;;;;;;5022231;28;20183;-88
2022/08/29 06:08:16;;;;;;;8.30;2.77;;;33.50;58.80;;;;;;5041601;28;20179;-88
2022/08/29 06:10:44;;;;;;;11.57;3.30;;;;;;;;;;5025817;28;20492;-89
2022/08/29 06:13:10;;;;;;;3.53;2.53;;;33.80;56.00;;;;;;5034355;28;20463;-89
2022/08/29 06:15:36;;;;;;;9.63;4.00;;;33.80;55.90;;;;;;5018750;28;20961;-89
2022/08/29 06:18:02;;;;;;;4.93;3.20;;;35.80;53.90;;;;;;5014612;28;20467;-87
2022/08/29 06:20:28;;;;;;;5.27;3.47;;;;;;;;;;5010159;28;20187;-88
2022/08/29 06:22:56;;;;;;;8.20;4.53;;;;;;;;;;5038808;28;20430;-87
2022/08/29 06:25:21;;;;;;;7.93;5.00;;;37.20;48.60;;;;;;5027973;28;20459;-88
2022/08/29 06:27:47;;;;;;;9.17;6.50;;;;;;;;;;5025655;28;20450;-87
2022/08/29 06:30:13;;;;;;;7.27;6.47;;;;;;;;;;5022142;28;20199;-89
2022/08/29 06:32:39;;;;;;;13.40;7.40;;;38.30;46.30;;;;;;5036523;28;20425;-89
2022/08/29 06:35:05;;;;;;;8.67;7.87;;;38.60;45.10;;;;;;5032785;28;20430;-89
2022/08/29 06:37:31;;;;;;;8.10;7.40;;;;;;;;;;5032437;28;20312;-90
2022/08/29 06:39:57;;;;;;;9.50;7.73;;;;;;;;;;5042843;28;20540;-90
2022/08/29 06:42:23;;;;;;;9.17;8.13;;;;;;;;;;5040342;28;20418;-88
2022/08/29 06:44:50;;;;;;;9.70;8.07;;;;;;;;;;5036569;28;20418;-90
2022/08/29 06:47:15;;;;;;;10.30;7.93;;;38.70;42.30;;;;;;5011301;28;20454;-90
2022/08/29 06:49:41;;;;;;;10.10;9.10;;;38.30;43.50;;;;;;5032050;28;20475;-89
2022/08/29 06:52:07;;;;;;;9.00;8.33;;;;;;;;;;5038199;28;20175;-89
2022/08/29 06:54:33;;;;;;;11.53;10.50;;;;;;;;;;5044364;28;20183;-88
2022/08/29 06:56:58;;;;;;;12.20;10.43;;;38.40;40.80;;;;;;5024164;28;20453;-87
2022/08/29 06:59:25;;;;;;;9.47;8.77;;;37.20;42.00;;;;;;5035767;28;20780;-89
2022/08/29 07:01:51;;;;;;;9.40;8.67;;;37.20;42.50;;;;;;5033805;28;20649;-89
2022/08/29 07:04:16;;;;;;;9.50;8.80;;;37.40;43.00;;;;;;5036865;28;20411;-88
2022/08/29 07:06:43;;;;;;;10.57;9.57;;;;;;;;;;5015743;28;20212;-89
2022/08/29 07:09:09;;;;;;;13.27;9.57;;;;;;;;;;5021009;28;20213;-89
2022/08/29 07:11:37;;;;;;;9.47;8.63;;;38.70;41.00;;;;;;5021397;28;20415;-86
2022/08/29 07:14:03;;;;;;;10.20;9.50;;;39.40;41.50;;;;;;5026932;28;20451;-89
2022/08/29 07:16:31;;;;;;;10.70;9.60;;;39.10;39.10;;;;;;5034102;28;20442;-89
2022/08/29 07:18:57;;;;;;;11.03;9.80;;;;;;;;;;5034155;28;20492;-85
2022/08/29 07:21:25;;;;;;;10.43;9.43;;;39.60;39.90;;;;;;5032503;28;20420;-86
2022/08/29 07:23:52;;;;;;;11.27;10.57;;;39.60;40.40;;;;;;5037933;28;20417;-88
2022/08/29 07:26:28;;;;;;;11.70;11.00;;;40.30;38.50;;;;;;5033473;28;20461;-87
2022/08/29 07:28:56;;;;;;;13.83;12.60;;;40.60;38.10;;;;;;5050584;28;20446;-89
2022/08/29 07:31:22;;;;;;;11.93;11.23;;;39.90;37.90;;;;;;5035924;28;20948;-90
2022/08/29 07:33:48;;;;;;;12.97;11.87;;;;;;;;;;5017416;28;20444;-90
2022/08/29 07:36:14;;;;;;;13.97;12.83;;;;;;;;;;5016971;28;20520;-89
2022/08/29 07:38:40;;;;;;;15.73;14.20;;;;;;;;;;5036872;28;20497;-89
2022/08/29 07:41:08;;;;;;;15.13;13.83;;;40.30;36.60;;;;;;5017338;28;20421;-88
2022/08/29 07:43:34;;;;;;;13.83;12.73;;;;;;;;;;5047412;28;20427;-89
2022/08/29 07:46:11;;;;;;;13.10;12.30;;;40.10;38.00;;;;;;5035599;28;20419;-89
2022/08/29 07:48:37;;;;;;;13.37;12.30;;;;;;;;;;5033273;28;20418;-87
2022/08/29 07:51:07;;;;;;;14.07;13.00;;;40.50;37.60;;;;;;5012655;28;20444;-90
2022/08/29 07:53:33;;;;;;;14.43;13.53;;;;;;;;;;5007677;28;20515;-89
2022/08/29 07:55:59;;;;;;;13.87;12.87;;;;;;;;;;5019093;28;20426;-88
2022/08/29 07:58:24;;;;;;;14.63;13.23;;;40.20;36.60;;;;;;5022275;28;20459;-89
2022/08/29 08:00:50;;;;;;;14.20;13.10;;;39.90;37.40;;;;;;5035520;28;20388;-90
2022/08/29 08:03:15;;;;;;;14.37;13.30;;;;;;;;;;5023850;28;20189;-88
2022/08/29 08:05:41;;;;;;;15.63;14.30;;;;;;;;;;5014193;28;20189;-89
2022/08/29 08:08:10;;;;;;;15.93;13.93;;;;;;;;;;5037171;28;20491;-89
2022/08/29 08:10:38;;;;;;;14.47;13.47;;;38.30;37.20;;;;;;5028206;28;20283;-90
2022/08/29 08:13:03;;;;;;;14.23;13.30;;;38.20;39.00;;;;;;5026839;28;20417;-90
2022/08/29 08:15:29;;;;;;;14.23;12.93;;;;;;;;;;5023734;28;20771;-88
2022/08/29 08:17:55;;;;;;;15.00;13.90;;;;;;;;;;5017150;28;20278;-90
2022/08/29 08:20:21;;;;;;;14.27;13.17;;;;;;;;;;5031908;28;20407;-90
2022/08/29 08:22:47;;;;;;;14.70;13.30;;;;;;;;;;5028634;28;20466;-87
2022/08/29 08:25:14;;;;;;;17.40;14.80;;;39.30;36.80;;;;;;5019258;28;20913;-87
2022/08/29 08:27:40;;;;;;;14.60;13.40;;;;;;;;;;5018582;28;20200;-88
2022/08/29 08:30:06;;;;;;;16.60;14.80;;;;;;;;;;5030419;28;20449;-88
2022/08/29 08:32:31;;;;;;;12.90;11.90;;;34.70;41.90;;;;;;5027973;28;20437;-88
2022/08/29 08:34:57;;;;;;;13.70;12.50;;;;;;;;;;5046451;28;20454;-91
2022/08/29 08:37:23;;;;;;;14.23;12.70;;;;;;;;;;5028359;28;20196;-89
2022/08/29 08:39:49;;;;;;;13.50;11.83;;;;;;;;;;5020679;28;20466;-89
2022/08/29 08:42:41;;;;;;;13.77;12.67;;;36.80;42.00;;;;;;5029119;28;20496;-87
2022/08/29 08:45:12;;;;;;;13.40;12.20;;;36.40;41.30;;;;;;5029270;28;20514;-86
2022/08/29 08:47:59;;;;;;;13.37;12.33;;;37.10;41.10;;;;;;5021964;28;20510;-83
2022/08/29 08:50:52;;;;;;;14.30;13.00;;;38.10;40.70;;;;;;5025715;28;20414;-89
2022/08/29 08:53:34;;;;;;;12.50;11.40;;;36.60;40.90;;;;;;5001558;28;20444;-86
2022/08/29 08:56:10;;;;;;;13.50;12.40;;;36.80;40.20;;;;;;5028928;28;20439;-85
2022/08/29 08:58:46;;;;;;;14.40;13.00;;;35.80;41.60;;;;;;5044209;28;20453;-86
2022/08/29 09:01:17;;;;;;;14.10;13.03;;;35.70;42.30;;;;;;5036934;28;20567;-88
2022/08/29 09:04:09;;;;;;;14.50;13.27;;;35.70;42.40;;;;;;5031413;28;20506;-85
2022/08/29 09:06:50;;;;;;;13.70;12.70;;;34.90;42.20;;;;;;5026896;28;20451;-85
2022/08/29 09:09:39;;;;;;;13.80;12.43;;;35.10;43.90;;;;;;5020610;28;20472;-88
2022/08/29 09:12:30;;;;;;;14.33;13.10;;;35.70;43.40;;;;;;5042894;28;20429;-87
2022/08/29 09:15:01;;;;;;;14.47;13.23;;;36.90;41.90;;;;;;5036130;28;20975;-88
2022/08/29 09:17:35;;;;;;;14.90;13.70;;;37.00;42.40;;;;;;4999627;28;20466;-87
2022/08/29 09:20:05;;;;;;;14.00;12.80;;;38.90;40.00;;;;;;5013294;28;20531;-87
2022/08/29 09:22:33;;;;;;;14.80;13.50;;;36.10;40.90;;;;;;5024469;28;20416;-85
2022/08/29 09:25:04;;;;;;;13.27;12.00;;;36.80;42.20;;;;;;5002595;28;21085;-83
2022/08/29 09:27:32;;;;;;;13.37;12.27;;;36.80;42.70;;;;;;5003718;28;20449;-86
2022/08/29 09:30:10;;;;;;;13.30;12.10;;;36.20;43.00;;;;;;5043852;28;20517;-86
2022/08/29 09:32:54;;;;;;;15.20;12.13;;;35.60;42.90;;;;;;5023373;28;20441;-85
2022/08/29 09:35:23;;;;;;;13.53;12.43;;;34.20;45.80;;;;;;5001346;28;20437;-86
2022/08/29 09:38:18;;;;;;;12.87;11.60;;;34.20;46.30;;;;;;5005776;28;20513;-87
2022/08/29 09:40:49;;;;;;;13.00;12.00;;;33.90;45.60;;;;;;4993754;28;20507;-87
2022/08/29 09:43:43;;;;;;;12.70;11.20;;;33.20;45.90;;;;;;5022222;28;20420;-87
2022/08/29 09:46:23;;;;;;;11.40;10.63;;;33.20;48.30;;;;;;5006064;28;20440;-87
2022/08/29 09:48:58;;;;;;;11.23;10.10;;;32.10;49.50;;;;;;5035128;28;20481;-87
2022/08/29 09:51:32;;;;;;;11.40;9.10;;;31.50;51.80;;;;;;5011353;28;20885;-87
2022/08/29 09:54:23;;;;;;;11.00;9.90;;;32.40;50.00;;;;;;5021199;28;20463;-87
2022/08/29 09:56:56;;;;;;;13.20;10.70;;;32.40;49.00;;;;;;5017218;28;20929;-86
2022/08/29 09:59:34;;;;;;;9.60;8.40;;;32.70;49.70;;;;;;5041006;28;20485;-86
2022/08/29 10:02:28;;;;;;;9.50;8.57;;;32.10;51.30;;;;;;5043676;28;20404;-84
2022/08/29 10:04:58;;;;;;;12.73;9.80;;;34.40;47.30;;;;;;5019375;28;20824;-88
2022/08/29 10:07:26;;;;;;;11.03;9.93;;;34.40;47.80;;;;;;5026840;28;20457;-86
2022/08/29 10:10:05;;;;;;;12.07;10.87;;;35.30;46.00;;;;;;5013991;28;20433;-86
2022/08/29 10:12:37;;;;;;;12.03;11.10;;;35.40;45.80;;;;;;5042714;28;20395;-84
2022/08/29 10:15:09;;;;;;;11.53;10.47;;;34.70;46.70;;;;;;5042187;28;20430;-85
2022/08/29 10:20:42;;;;;;;10.10;9.30;;;33.80;48.00;;;;;;5035863;28;20514;-86
2022/08/29 10:23:34;;;;;;;14.50;10.00;;;32.20;50.50;;;;;;5022705;28;20444;-87
2022/08/29 10:26:07;;;;;;;10.33;8.00;;;30.10;51.70;;;;;;4984396;28;20460;-87
2022/08/29 10:29:04;;;;;;;8.77;7.67;;;30.20;52.40;;;;;;5032511;28;20421;-87
2022/08/29 10:31:45;;;;;;;10.30;7.77;;;29.30;52.50;;;;;;5048682;28;20442;-86
2022/08/29 10:34:35;;;;;;;11.50;6.53;;;28.90;54.90;;;;;;5023933;28;20454;-84
2022/08/29 10:37:11;;;;;;;9.20;6.23;;;28.50;55.70;;;;;;5018902;28;20446;-86
2022/08/29 10:39:43;;;;;;;9.63;6.20;;;28.30;57.50;;;;;;5013109;28;20551;-85
2022/08/29 10:42:14;;;;;;;11.23;6.07;;;28.00;57.50;;;;;;5010105;28;20418;-85
2022/08/29 10:44:56;;;;;;;13.27;5.67;;;27.80;57.90;;;;;;5013754;28;20431;-85
2022/08/29 10:47:46;;;;;;;11.03;6.70;;;27.90;58.00;;;;;;5031325;28;20449;-89
2022/08/29 10:50:30;;;;;;;9.97;6.00;;;28.00;58.00;;;;;;5044096;28;20411;-87
2022/08/29 10:52:56;;;;;;;14.17;5.50;;;;;;;;;;5014946;28;20966;-86
2022/08/29 10:55:31;;;;;;;12.60;5.77;;;28.10;56.80;;;;;;5003521;28;20434;-86
2022/08/29 10:58:15;;;;;;;7.43;5.27;;;28.10;58.40;;;;;;5023692;28;20463;-87
2022/08/29 11:00:50;;;;;;;13.93;5.80;;;28.20;58.20;;;;;;5009384;28;20435;-85
2022/08/29 11:03:34;;;;;;;15.40;5.87;;;28.40;58.50;;;;;;5047658;28;20428;-87
2022/08/29 11:06:05;;;;;;;8.00;4.70;;;28.10;58.10;;;;;;5042652;28;20407;-86
2022/08/29 11:08:41;;;;;;;7.53;5.67;;;28.10;58.60;;;;;;5018389;28;20422;-87
2022/08/29 11:11:07;;;;;;;7.57;6.00;;;;;;;;;;5020713;28;20426;-86
2022/08/29 11:13:49;;;;;;;8.07;5.67;;;28.40;57.40;;;;;;5025109;28;20429;-85
2022/08/29 11:16:24;;;;;;;11.20;6.13;;;28.80;58.60;;;;;;5012426;28;20559;-86
2022/08/29 11:18:55;;;;;;;7.60;5.60;;;28.50;57.60;;;;;;5007628;28;20497;-86
2022/08/29 11:21:36;;;;;;;9.07;6.10;;;28.50;57.80;;;;;;5042741;28;20475;-86
2022/08/29 11:24:03;;;;;;;7.27;5.53;;;28.40;56.60;;;;;;5005701;28;20554;-88
2022/08/29 11:26:43;;;;;;;7.93;5.80;;;28.50;57.50;;;;;;5023325;28;20436;-87
2022/08/29 11:29:37;;;;;;;7.93;6.33;;;28.20;57.60;;;;;;5026129;28;20474;-86
2022/08/29 11:32:31;;;;;;;7.77;5.30;;;27.90;58.60;;;;;;5036647;28;20406;-82
2022/08/29 11:35:10;;;;;;;12.73;5.63;;;27.70;58.80;;;;;;5040629;28;20439;-86
2022/08/29 11:38:03;;;;;;;8.40;5.43;;;27.50;59.60;;;;;;5043090;28;20733;-87
2022/08/29 11:40:48;;;;;;;5.30;4.60;;;27.70;61.20;;;;;;5037737;28;20431;-85
2022/08/29 11:43:19;;;;;;;13.93;5.93;;;27.80;60.10;;;;;;5032334;28;20544;-85
2022/08/29 11:45:55;;;;;;;8.33;5.87;;;27.70;60.50;;;;;;5020195;28;20967;-86
2022/08/29 11:48:46;;;;;;;8.23;5.33;;;28.00;61.60;;;;;;5035593;28;20408;-87
2022/08/29 11:51:33;;;;;;;7.00;6.00;;;27.80;60.30;;;;;;5059227;28;20434;-84
2022/08/29 11:54:21;;;;;;;7.13;5.67;;;27.60;59.80;;;;;;5047358;28;20459;-87
2022/08/29 11:56:46;;;;;;;8.67;5.07;;;27.60;59.80;;;;;;5038272;28;20434;-89
2022/08/29 11:59:50;;;;;;;6.97;5.17;;;27.80;58.80;;;;;;5021939;28;21161;-88
2022/08/29 12:02:31;;;;;;;12.20;5.67;;;27.80;59.50;;;;;;5021483;28;20645;-87
2022/08/29 12:04:59;;;;;;;6.90;5.50;;;27.50;61.80;;;;;;5023685;28;20444;-87
2022/08/29 12:07:48;;;;;;;8.13;5.80;;;27.60;61.70;;;;;;5044772;28;20447;-85
2022/08/29 12:10:23;;;;;;;12.53;5.83;;;27.80;60.70;;;;;;5038226;28;20481;-87
2022/08/29 12:12:56;;;;;;;8.83;6.47;;;28.00;59.50;;;;;;5032790;28;20443;-87
2022/08/29 12:15:37;;;;;;;7.20;5.00;;;28.00;60.40;;;;;;5002573;28;20472;-87
2022/08/29 12:18:25;;;;;;;8.80;6.30;;;27.90;59.90;;;;;;5020984;28;21261;-87
2022/08/29 12:20:57;;;;;;;6.33;5.30;;;28.00;60.30;;;;;;5038238;28;20454;-84
2022/08/29 12:23:34;;;;;;;8.90;5.60;;;28.10;59.80;;;;;;5011630;28;20550;-88
2022/08/29 12:26:04;;;;;;;6.07;5.37;;;28.40;58.00;;;;;;5026703;28;20462;-89
2022/08/29 12:28:44;;;;;;;10.10;5.20;;;28.40;58.60;;;;;;5016979;28;20441;-85
2022/08/29 12:31:24;;;;;;;6.40;5.80;;;28.50;59.20;;;;;;5010923;28;20466;-87
2022/08/29 12:34:42;;;;;;;10.33;6.70;;;28.40;58.00;;;;;;5022657;28;20437;-88
2022/08/29 12:37:32;;;;;;;8.20;5.37;;;28.10;59.00;;;;;;4950481;28;20495;-87
2022/08/29 12:40:20;;;;;;;9.23;6.20;;;28.10;59.10;;;;;;4967400;28;20574;-87
2022/08/29 12:43:04;;;;;;;8.20;5.53;;;28.10;59.40;;;;;;5027743;28;20436;-87
2022/08/29 12:45:31;;;;;;;10.73;5.53;;;;;;;;;;5031518;28;20497;-84
2022/08/29 12:48:00;;;;;;;7.00;5.70;;;28.60;58.80;;;;;;4998400;28;20481;-88
2022/08/29 12:50:30;;;;;;;6.90;5.40;;;29.10;58.00;;;;;;5001535;28;20479;-85
2022/08/29 12:53:33;;;;;;;5.97;5.03;;;28.90;57.10;;;;;;4997087;28;20436;-87
2022/08/29 12:56:03;;;;;;;6.37;5.13;;;29.00;56.80;;;;;;5032210;28;20427;-82
2022/08/29 12:58:37;;;;;;;8.17;5.77;;;29.10;55.60;;;;;;5032887;28;20570;-84
2022/08/29 13:01:23;;;;;;;7.70;5.70;;;28.80;56.70;;;;;;5030690;28;21064;-84
2022/08/29 13:04:03;;;;;;;6.13;5.43;;;28.90;57.10;;;;;;5005784;28;20452;-85
2022/08/29 13:06:30;;;;;;;7.10;5.20;;;28.90;57.50;;;;;;5025611;28;20551;-85
2022/08/29 13:08:57;;;;;;;12.30;6.73;;;28.40;57.40;;;;;;5014437;28;20463;-86
2022/08/29 13:11:26;;;;;;;7.93;4.77;;;28.40;57.90;;;;;;5033749;28;20445;-86
2022/08/29 13:14:05;;;;;;;7.53;5.90;;;28.80;58.10;;;;;;5032150;28;20539;-88
2022/08/29 13:16:32;;;;;;;6.00;5.40;;;29.10;56.90;;;;;;5006943;28;21778;-86
2022/08/29 13:18:57;;;;;;;8.23;5.60;;;29.10;57.40;;;;;;5015706;28;20557;-86
2022/08/29 13:21:29;;;;;;;6.30;5.70;;;29.20;56.10;;;;;;5021982;28;20472;-84